sensor_id;sensor_type;location;lat;lon;timestamp;temperature;humidity
22974;DHT22;11653;50.848;4.584;2023-06-19T00:01:48;20.90;99.90
22974;DHT22;11653;50.848;4.584;2023-06-19T00:04:14;20.70;99.90
22974;DHT22;11653;50.848;4.584;2023-06-19T00:06:39;20.70;99.90
22974;DHT22;11653;50.848;4.584;2023-06-19T00:09:06;20.70;99.90
22974;DHT22;11653;50.848;4.584;2023-06-19T00:11:32;20.80;99.90
22974;DHT22;11653;50.848;4.584;2023-06-19T00:13:58;20.70;99.90
22974;DHT22;11653;50.848;4.584;2023-06-19T00:16:23;20.70;99.90
22974;DHT22;11653;50.848;4.584;2023-06-19T00:18:51;20.50;99.90
22974;DHT22;11653;50.848;4.584;2023-06-19T00:21:17;20.40;99.90
22974;DHT22;11653;50.848;4.584;2023-06-19T00:23:43;20.30;99.90
22974;DHT22;11653;50.848;4.584;2023-06-19T00:26:09;20.40;99.90
22974;DHT22;11653;50.848;4.584;2023-06-19T00:28:34;20.50;99.90
22974;DHT22;11653;50.848;4.584;2023-06-19T00:31:04;20.60;99.90
22974;DHT22;11653;50.848;4.584;2023-06-19T00:33:32;20.60;99.90
22974;DHT22;11653;50.848;4.584;2023-06-19T00:35:57;20.60;99.90
22974;DHT22;11653;50.848;4.584;2023-06-19T00:38:23;20.60;99.90
22974;DHT22;11653;50.848;4.584;2023-06-19T00:40:49;20.60;99.90
22974;DHT22;11653;50.848;4.584;2023-06-19T00:43:14;20.70;99.90
22974;DHT22;11653;50.848;4.584;2023-06-19T00:45:40;20.70;99.90
22974;DHT22;11653;50.848;4.584;2023-06-19T00:48:06;20.60;99.90
22974;DHT22;11653;50.848;4.584;2023-06-19T00:50:32;20.50;99.90
22974;DHT22;11653;50.848;4.584;2023-06-19T00:52:59;20.50;99.90
22974;DHT22;11653;50.848;4.584;2023-06-19T00:55:28;20.40;99.90
22974;DHT22;11653;50.848;4.584;2023-06-19T00:57:59;20.50;99.90
22974;DHT22;11653;50.848;4.584;2023-06-19T01:00:24;20.40;99.90
22974;DHT22;11653;50.848;4.584;2023-06-19T01:02:50;20.40;99.90
22974;DHT22;11653;50.848;4.584;2023-06-19T01:05:16;20.40;99.90
22974;DHT22;11653;50.848;4.584;2023-06-19T01:10:26;20.40;99.90
22974;DHT22;11653;50.848;4.584;2023-06-19T01:15:45;20.40;99.90
22974;DHT22;11653;50.848;4.584;2023-06-19T01:18:13;20.30;99.90
22974;DHT22;11653;50.848;4.584;2023-06-19T01:20:39;20.20;99.90
22974;DHT22;11653;50.848;4.584;2023-06-19T01:23:07;20.10;99.90
22974;DHT22;11653;50.848;4.584;2023-06-19T01:25:33;20.00;99.90
22974;DHT22;11653;50.848;4.584;2023-06-19T01:27:59;20.00;99.90
22974;DHT22;11653;50.848;4.584;2023-06-19T01:30:24;20.00;99.90
22974;DHT22;11653;50.848;4.584;2023-06-19T01:33:00;20.10;99.90
22974;DHT22;11653;50.848;4.584;2023-06-19T01:35:34;20.10;99.90
22974;DHT22;11653;50.848;4.584;2023-06-19T01:38:01;20.10;99.90
22974;DHT22;11653;50.848;4.584;2023-06-19T01:40:27;20.10;99.90
22974;DHT22;11653;50.848;4.584;2023-06-19T01:42:58;20.00;99.90
22974;DHT22;11653;50.848;4.584;2023-06-19T01:45:27;20.10;99.90
22974;DHT22;11653;50.848;4.584;2023-06-19T01:47:53;20.00;99.90
22974;DHT22;11653;50.848;4.584;2023-06-19T01:50:23;20.00;99.90
22974;DHT22;11653;50.848;4.584;2023-06-19T01:52:50;20.00;99.90
22974;DHT22;11653;50.848;4.584;2023-06-19T01:55:15;20.00;99.90
22974;DHT22;11653;50.848;4.584;2023-06-19T01:57:41;20.20;99.90
22974;DHT22;11653;50.848;4.584;2023-06-19T02:00:07;20.30;99.90
22974;DHT22;11653;50.848;4.584;2023-06-19T02:02:34;20.20;99.90
22974;DHT22;11653;50.848;4.584;2023-06-19T02:04:59;20.30;99.90
22974;DHT22;11653;50.848;4.584;2023-06-19T02:07:25;20.30;99.90
22974;DHT22;11653;50.848;4.584;2023-06-19T02:09:51;20.20;99.90
22974;DHT22;11653;50.848;4.584;2023-06-19T02:12:16;20.10;99.90
22974;DHT22;11653;50.848;4.584;2023-06-19T02:14:42;20.20;99.90
22974;DHT22;11653;50.848;4.584;2023-06-19T02:17:07;20.20;99.90
22974;DHT22;11653;50.848;4.584;2023-06-19T02:19:33;20.20;99.90
22974;DHT22;11653;50.848;4.584;2023-06-19T02:21:59;20.20;99.90
22974;DHT22;11653;50.848;4.584;2023-06-19T02:24:24;20.30;99.90
22974;DHT22;11653;50.848;4.584;2023-06-19T02:26:50;20.40;99.90
22974;DHT22;11653;50.848;4.584;2023-06-19T02:29:16;20.50;99.90
22974;DHT22;11653;50.848;4.584;2023-06-19T02:31:42;20.40;99.90
22974;DHT22;11653;50.848;4.584;2023-06-19T02:34:08;20.40;99.90
22974;DHT22;11653;50.848;4.584;2023-06-19T02:36:34;20.50;99.90
22974;DHT22;11653;50.848;4.584;2023-06-19T02:39:03;20.50;99.90
22974;DHT22;11653;50.848;4.584;2023-06-19T02:41:29;20.50;99.90
22974;DHT22;11653;50.848;4.584;2023-06-19T02:43:55;20.60;99.90
22974;DHT22;11653;50.848;4.584;2023-06-19T02:46:20;20.70;99.90
22974;DHT22;11653;50.848;4.584;2023-06-19T02:48:46;20.70;99.90
22974;DHT22;11653;50.848;4.584;2023-06-19T02:51:12;20.70;99.90
22974;DHT22;11653;50.848;4.584;2023-06-19T02:53:37;20.80;99.90
22974;DHT22;11653;50.848;4.584;2023-06-19T02:56:03;20.90;99.90
22974;DHT22;11653;50.848;4.584;2023-06-19T02:58:30;20.90;99.90
22974;DHT22;11653;50.848;4.584;2023-06-19T03:00:56;20.90;99.90
22974;DHT22;11653;50.848;4.584;2023-06-19T03:03:21;21.00;99.90
22974;DHT22;11653;50.848;4.584;2023-06-19T03:05:48;20.90;99.90
22974;DHT22;11653;50.848;4.584;2023-06-19T03:08:14;20.90;99.90
22974;DHT22;11653;50.848;4.584;2023-06-19T03:10:39;20.80;99.90
22974;DHT22;11653;50.848;4.584;2023-06-19T03:13:05;20.80;99.90
22974;DHT22;11653;50.848;4.584;2023-06-19T03:15:31;20.80;99.90
22974;DHT22;11653;50.848;4.584;2023-06-19T03:17:56;20.80;99.90
22974;DHT22;11653;50.848;4.584;2023-06-19T03:20:22;20.80;99.90
22974;DHT22;11653;50.848;4.584;2023-06-19T03:22:47;20.80;99.90
22974;DHT22;11653;50.848;4.584;2023-06-19T03:25:13;20.90;99.90
22974;DHT22;11653;50.848;4.584;2023-06-19T03:27:39;20.80;99.90
22974;DHT22;11653;50.848;4.584;2023-06-19T03:30:05;20.80;99.90
22974;DHT22;11653;50.848;4.584;2023-06-19T03:32:32;20.80;99.90
22974;DHT22;11653;50.848;4.584;2023-06-19T03:34:59;20.90;99.90
22974;DHT22;11653;50.848;4.584;2023-06-19T03:37:24;20.90;99.90
22974;DHT22;11653;50.848;4.584;2023-06-19T03:39:50;20.90;99.90
22974;DHT22;11653;50.848;4.584;2023-06-19T03:42:15;20.80;99.90
22974;DHT22;11653;50.848;4.584;2023-06-19T03:44:41;20.70;99.90
22974;DHT22;11653;50.848;4.584;2023-06-19T03:47:07;20.70;99.90
22974;DHT22;11653;50.848;4.584;2023-06-19T03:49:33;20.60;99.90
22974;DHT22;11653;50.848;4.584;2023-06-19T03:51:58;20.40;99.90
22974;DHT22;11653;50.848;4.584;2023-06-19T03:54:24;20.10;99.90
22974;DHT22;11653;50.848;4.584;2023-06-19T03:56:51;20.00;99.90
22974;DHT22;11653;50.848;4.584;2023-06-19T03:59:17;19.80;99.90
22974;DHT22;11653;50.848;4.584;2023-06-19T04:01:43;19.80;99.90
22974;DHT22;11653;50.848;4.584;2023-06-19T04:04:09;19.70;99.90
22974;DHT22;11653;50.848;4.584;2023-06-19T04:06:34;19.60;99.90
22974;DHT22;11653;50.848;4.584;2023-06-19T04:09:00;19.60;99.90
22974;DHT22;11653;50.848;4.584;2023-06-19T04:11:26;19.60;99.90
22974;DHT22;11653;50.848;4.584;2023-06-19T04:13:51;19.70;99.90
22974;DHT22;11653;50.848;4.584;2023-06-19T04:16:17;19.60;99.90
22974;DHT22;11653;50.848;4.584;2023-06-19T04:18:43;19.60;99.90
22974;DHT22;11653;50.848;4.584;2023-06-19T04:21:08;19.60;99.90
22974;DHT22;11653;50.848;4.584;2023-06-19T04:23:34;19.50;99.90
22974;DHT22;11653;50.848;4.584;2023-06-19T04:26:00;19.50;99.90
22974;DHT22;11653;50.848;4.584;2023-06-19T04:28:25;19.50;99.90
22974;DHT22;11653;50.848;4.584;2023-06-19T04:30:51;19.50;99.90
22974;DHT22;11653;50.848;4.584;2023-06-19T04:33:28;19.40;99.90
22974;DHT22;11653;50.848;4.584;2023-06-19T04:35:55;19.40;99.90
22974;DHT22;11653;50.848;4.584;2023-06-19T04:38:20;19.50;99.90
22974;DHT22;11653;50.848;4.584;2023-06-19T04:40:52;19.50;99.90
22974;DHT22;11653;50.848;4.584;2023-06-19T04:43:18;19.60;99.90
22974;DHT22;11653;50.848;4.584;2023-06-19T04:45:44;19.70;99.90
22974;DHT22;11653;50.848;4.584;2023-06-19T04:48:09;19.90;99.90
22974;DHT22;11653;50.848;4.584;2023-06-19T04:50:35;19.90;99.90
22974;DHT22;11653;50.848;4.584;2023-06-19T04:53:01;20.00;99.90
22974;DHT22;11653;50.848;4.584;2023-06-19T04:55:27;20.20;99.90
22974;DHT22;11653;50.848;4.584;2023-06-19T04:57:52;20.30;99.90
22974;DHT22;11653;50.848;4.584;2023-06-19T05:00:18;20.40;99.90
22974;DHT22;11653;50.848;4.584;2023-06-19T05:02:45;20.50;99.90
22974;DHT22;11653;50.848;4.584;2023-06-19T05:05:18;20.70;99.90
22974;DHT22;11653;50.848;4.584;2023-06-19T05:07:44;21.00;99.90
22974;DHT22;11653;50.848;4.584;2023-06-19T05:10:10;21.30;99.90
22974;DHT22;11653;50.848;4.584;2023-06-19T05:12:36;21.50;99.90
22974;DHT22;11653;50.848;4.584;2023-06-19T05:15:02;21.80;99.90
22974;DHT22;11653;50.848;4.584;2023-06-19T05:17:28;22.00;99.90
22974;DHT22;11653;50.848;4.584;2023-06-19T05:19:54;22.10;99.90
22974;DHT22;11653;50.848;4.584;2023-06-19T05:22:20;22.20;99.90
22974;DHT22;11653;50.848;4.584;2023-06-19T05:24:47;22.20;99.90
22974;DHT22;11653;50.848;4.584;2023-06-19T05:27:13;22.40;99.90
22974;DHT22;11653;50.848;4.584;2023-06-19T05:29:38;22.40;99.90
22974;DHT22;11653;50.848;4.584;2023-06-19T05:32:04;22.50;99.90
22974;DHT22;11653;50.848;4.584;2023-06-19T05:34:30;22.50;99.90
22974;DHT22;11653;50.848;4.584;2023-06-19T05:36:57;22.60;99.90
22974;DHT22;11653;50.848;4.584;2023-06-19T05:39:23;22.60;99.90
22974;DHT22;11653;50.848;4.584;2023-06-19T05:41:49;22.70;99.90
22974;DHT22;11653;50.848;4.584;2023-06-19T05:44:14;22.80;99.90
22974;DHT22;11653;50.848;4.584;2023-06-19T05:46:42;22.80;99.90
22974;DHT22;11653;50.848;4.584;2023-06-19T05:49:08;22.70;99.90
22974;DHT22;11653;50.848;4.584;2023-06-19T05:51:34;22.80;99.90
22974;DHT22;11653;50.848;4.584;2023-06-19T05:53:59;22.60;99.90
22974;DHT22;11653;50.848;4.584;2023-06-19T05:56:30;22.40;99.90
22974;DHT22;11653;50.848;4.584;2023-06-19T05:58:56;22.30;99.90
22974;DHT22;11653;50.848;4.584;2023-06-19T06:01:21;22.20;99.90
22974;DHT22;11653;50.848;4.584;2023-06-19T06:03:47;21.90;99.90
22974;DHT22;11653;50.848;4.584;2023-06-19T06:06:13;21.80;99.90
22974;DHT22;11653;50.848;4.584;2023-06-19T06:08:38;21.60;99.90
22974;DHT22;11653;50.848;4.584;2023-06-19T06:11:04;21.50;99.90
22974;DHT22;11653;50.848;4.584;2023-06-19T06:13:30;21.30;99.90
22974;DHT22;11653;50.848;4.584;2023-06-19T06:15:55;21.10;99.90
22974;DHT22;11653;50.848;4.584;2023-06-19T06:18:21;21.10;99.90
22974;DHT22;11653;50.848;4.584;2023-06-19T06:20:47;21.10;99.90
22974;DHT22;11653;50.848;4.584;2023-06-19T06:23:13;21.20;99.90
22974;DHT22;11653;50.848;4.584;2023-06-19T06:25:38;21.20;99.90
22974;DHT22;11653;50.848;4.584;2023-06-19T06:28:04;21.20;99.90
22974;DHT22;11653;50.848;4.584;2023-06-19T06:30:30;21.10;99.90
22974;DHT22;11653;50.848;4.584;2023-06-19T06:32:56;21.00;99.90
22974;DHT22;11653;50.848;4.584;2023-06-19T06:35:21;20.90;99.90
22974;DHT22;11653;50.848;4.584;2023-06-19T06:37:47;21.00;99.90
22974;DHT22;11653;50.848;4.584;2023-06-19T06:40:15;21.00;99.90
22974;DHT22;11653;50.848;4.584;2023-06-19T06:42:41;21.10;99.90
22974;DHT22;11653;50.848;4.584;2023-06-19T06:45:07;21.20;99.90
22974;DHT22;11653;50.848;4.584;2023-06-19T06:47:36;21.40;99.90
22974;DHT22;11653;50.848;4.584;2023-06-19T06:50:01;21.40;99.90
22974;DHT22;11653;50.848;4.584;2023-06-19T06:52:27;21.20;99.90
22974;DHT22;11653;50.848;4.584;2023-06-19T06:54:53;20.90;99.90
22974;DHT22;11653;50.848;4.584;2023-06-19T06:57:19;20.70;99.90
22974;DHT22;11653;50.848;4.584;2023-06-19T06:59:45;20.90;99.90
22974;DHT22;11653;50.848;4.584;2023-06-19T07:02:10;21.60;99.90
22974;DHT22;11653;50.848;4.584;2023-06-19T07:04:36;22.10;99.90
22974;DHT22;11653;50.848;4.584;2023-06-19T07:07:02;22.70;99.90
22974;DHT22;11653;50.848;4.584;2023-06-19T07:09:29;23.10;99.90
22974;DHT22;11653;50.848;4.584;2023-06-19T07:11:55;23.70;99.90
22974;DHT22;11653;50.848;4.584;2023-06-19T07:14:22;23.80;99.90
22974;DHT22;11653;50.848;4.584;2023-06-19T07:16:48;23.60;99.90
22974;DHT22;11653;50.848;4.584;2023-06-19T07:19:14;23.50;99.90
22974;DHT22;11653;50.848;4.584;2023-06-19T07:21:41;23.70;99.90
22974;DHT22;11653;50.848;4.584;2023-06-19T07:24:07;23.60;99.90
22974;DHT22;11653;50.848;4.584;2023-06-19T07:26:33;23.30;99.90
22974;DHT22;11653;50.848;4.584;2023-06-19T07:28:58;23.00;99.90
22974;DHT22;11653;50.848;4.584;2023-06-19T07:31:24;22.80;99.90
22974;DHT22;11653;50.848;4.584;2023-06-19T07:33:50;22.70;99.90
22974;DHT22;11653;50.848;4.584;2023-06-19T07:36:15;22.60;99.90
22974;DHT22;11653;50.848;4.584;2023-06-19T07:38:45;22.60;99.90
22974;DHT22;11653;50.848;4.584;2023-06-19T07:41:11;22.80;99.90
22974;DHT22;11653;50.848;4.584;2023-06-19T07:43:37;23.20;99.90
22974;DHT22;11653;50.848;4.584;2023-06-19T07:46:03;23.80;99.90
22974;DHT22;11653;50.848;4.584;2023-06-19T07:48:29;24.30;99.90
22974;DHT22;11653;50.848;4.584;2023-06-19T07:50:55;24.40;99.90
22974;DHT22;11653;50.848;4.584;2023-06-19T07:53:21;24.20;99.90
22974;DHT22;11653;50.848;4.584;2023-06-19T07:55:46;24.00;99.90
22974;DHT22;11653;50.848;4.584;2023-06-19T07:58:12;23.60;99.90
22974;DHT22;11653;50.848;4.584;2023-06-19T08:00:38;23.40;99.90
22974;DHT22;11653;50.848;4.584;2023-06-19T08:03:04;23.80;99.90
22974;DHT22;11653;50.848;4.584;2023-06-19T08:05:30;24.20;99.90
22974;DHT22;11653;50.848;4.584;2023-06-19T08:07:56;25.30;99.90
22974;DHT22;11653;50.848;4.584;2023-06-19T08:10:23;26.60;99.90
22974;DHT22;11653;50.848;4.584;2023-06-19T08:12:49;27.60;99.20
22974;DHT22;11653;50.848;4.584;2023-06-19T08:15:15;28.00;96.70
22974;DHT22;11653;50.848;4.584;2023-06-19T08:17:41;28.00;95.20
22974;DHT22;11653;50.848;4.584;2023-06-19T08:20:07;28.00;94.90
22974;DHT22;11653;50.848;4.584;2023-06-19T08:22:34;27.90;94.20
22974;DHT22;11653;50.848;4.584;2023-06-19T08:24:59;27.40;94.90
22974;DHT22;11653;50.848;4.584;2023-06-19T08:27:25;27.30;95.70
22974;DHT22;11653;50.848;4.584;2023-06-19T08:29:51;26.90;96.20
22974;DHT22;11653;50.848;4.584;2023-06-19T08:32:17;27.00;97.80
22974;DHT22;11653;50.848;4.584;2023-06-19T08:34:42;27.50;96.30
22974;DHT22;11653;50.848;4.584;2023-06-19T08:37:08;27.80;95.00
22974;DHT22;11653;50.848;4.584;2023-06-19T08:39:34;28.30;94.30
22974;DHT22;11653;50.848;4.584;2023-06-19T08:42:04;29.00;92.40
22974;DHT22;11653;50.848;4.584;2023-06-19T08:44:29;29.10;91.30
22974;DHT22;11653;50.848;4.584;2023-06-19T08:46:57;29.40;90.90
22974;DHT22;11653;50.848;4.584;2023-06-19T08:49:22;29.60;90.70
22974;DHT22;11653;50.848;4.584;2023-06-19T08:51:48;29.80;88.40
22974;DHT22;11653;50.848;4.584;2023-06-19T08:54:14;29.90;88.40
22974;DHT22;11653;50.848;4.584;2023-06-19T08:56:39;30.40;88.20
22974;DHT22;11653;50.848;4.584;2023-06-19T08:59:16;31.00;86.70
22974;DHT22;11653;50.848;4.584;2023-06-19T09:01:55;31.90;81.40
22974;DHT22;11653;50.848;4.584;2023-06-19T09:04:24;32.70;77.70
22974;DHT22;11653;50.848;4.584;2023-06-19T09:06:52;32.70;74.70
22974;DHT22;11653;50.848;4.584;2023-06-19T09:09:22;32.40;76.10
22974;DHT22;11653;50.848;4.584;2023-06-19T09:12:08;32.60;74.50
22974;DHT22;11653;50.848;4.584;2023-06-19T09:17:10;33.20;72.40
22974;DHT22;11653;50.848;4.584;2023-06-19T09:19:35;33.10;71.40
22974;DHT22;11653;50.848;4.584;2023-06-19T09:22:07;32.80;71.10
22974;DHT22;11653;50.848;4.584;2023-06-19T09:24:38;32.30;73.50
22974;DHT22;11653;50.848;4.584;2023-06-19T09:27:11;32.00;73.20
22974;DHT22;11653;50.848;4.584;2023-06-19T09:29:40;32.00;74.30
22974;DHT22;11653;50.848;4.584;2023-06-19T09:32:26;32.40;73.70
22974;DHT22;11653;50.848;4.584;2023-06-19T09:35:02;32.40;73.80
22974;DHT22;11653;50.848;4.584;2023-06-19T09:37:40;32.20;73.00
22974;DHT22;11653;50.848;4.584;2023-06-19T09:40:07;32.20;72.70
22974;DHT22;11653;50.848;4.584;2023-06-19T09:42:43;32.20;73.30
22974;DHT22;11653;50.848;4.584;2023-06-19T09:45:11;32.40;71.90
22974;DHT22;11653;50.848;4.584;2023-06-19T09:47:46;31.70;73.80
22974;DHT22;11653;50.848;4.584;2023-06-19T09:50:14;31.50;74.60
22974;DHT22;11653;50.848;4.584;2023-06-19T09:52:41;30.10;78.00
22974;DHT22;11653;50.848;4.584;2023-06-19T09:55:08;29.30;80.70
22974;DHT22;11653;50.848;4.584;2023-06-19T09:57:36;28.80;81.60
22974;DHT22;11653;50.848;4.584;2023-06-19T10:00:05;28.20;84.70
22974;DHT22;11653;50.848;4.584;2023-06-19T10:02:42;28.10;86.50
22974;DHT22;11653;50.848;4.584;2023-06-19T10:05:08;28.50;86.20
22974;DHT22;11653;50.848;4.584;2023-06-19T10:07:38;28.60;84.10
22974;DHT22;11653;50.848;4.584;2023-06-19T10:10:07;28.80;85.20
22974;DHT22;11653;50.848;4.584;2023-06-19T10:12:53;29.10;85.80
22974;DHT22;11653;50.848;4.584;2023-06-19T10:15:23;29.70;83.20
22974;DHT22;11653;50.848;4.584;2023-06-19T10:17:51;30.30;80.60
22974;DHT22;11653;50.848;4.584;2023-06-19T10:20:21;30.90;80.10
22974;DHT22;11653;50.848;4.584;2023-06-19T10:22:58;31.40;78.30
22974;DHT22;11653;50.848;4.584;2023-06-19T10:25:27;31.70;74.60
22974;DHT22;11653;50.848;4.584;2023-06-19T10:27:53;31.60;75.70
22974;DHT22;11653;50.848;4.584;2023-06-19T10:30:20;32.20;74.20
22974;DHT22;11653;50.848;4.584;2023-06-19T10:32:47;32.90;72.60
22974;DHT22;11653;50.848;4.584;2023-06-19T10:35:14;33.10;70.10
22974;DHT22;11653;50.848;4.584;2023-06-19T10:37:40;33.90;69.70
22974;DHT22;11653;50.848;4.584;2023-06-19T10:40:07;34.60;65.50
22974;DHT22;11653;50.848;4.584;2023-06-19T10:42:39;35.60;61.70
22974;DHT22;11653;50.848;4.584;2023-06-19T10:45:10;36.00;61.00
22974;DHT22;11653;50.848;4.584;2023-06-19T10:47:43;36.40;58.80
22974;DHT22;11653;50.848;4.584;2023-06-19T10:50:14;36.70;57.70
22974;DHT22;11653;50.848;4.584;2023-06-19T10:52:46;36.90;58.50
22974;DHT22;11653;50.848;4.584;2023-06-19T10:55:13;36.20;56.90
22974;DHT22;11653;50.848;4.584;2023-06-19T10:57:40;35.90;58.30
22974;DHT22;11653;50.848;4.584;2023-06-19T11:00:10;36.20;59.50
22974;DHT22;11653;50.848;4.584;2023-06-19T11:02:40;36.60;57.30
22974;DHT22;11653;50.848;4.584;2023-06-19T11:05:09;37.40;56.00
22974;DHT22;11653;50.848;4.584;2023-06-19T11:07:35;38.00;54.00
22974;DHT22;11653;50.848;4.584;2023-06-19T11:10:03;38.20;55.10
22974;DHT22;11653;50.848;4.584;2023-06-19T11:12:29;38.20;53.40
22974;DHT22;11653;50.848;4.584;2023-06-19T11:14:54;38.30;54.70
22974;DHT22;11653;50.848;4.584;2023-06-19T11:17:20;38.30;52.10
22974;DHT22;11653;50.848;4.584;2023-06-19T11:19:46;38.30;50.30
22974;DHT22;11653;50.848;4.584;2023-06-19T11:22:12;38.50;50.80
22974;DHT22;11653;50.848;4.584;2023-06-19T11:24:44;38.50;50.40
22974;DHT22;11653;50.848;4.584;2023-06-19T11:27:17;38.80;48.70
22974;DHT22;11653;50.848;4.584;2023-06-19T11:29:43;39.20;48.30
22974;DHT22;11653;50.848;4.584;2023-06-19T11:32:14;39.30;46.30
22974;DHT22;11653;50.848;4.584;2023-06-19T11:34:40;39.40;47.10
22974;DHT22;11653;50.848;4.584;2023-06-19T11:37:13;39.10;47.60
22974;DHT22;11653;50.848;4.584;2023-06-19T11:39:40;39.10;44.90
22974;DHT22;11653;50.848;4.584;2023-06-19T11:42:07;39.00;46.80
22974;DHT22;11653;50.848;4.584;2023-06-19T11:44:33;37.90;47.80
22974;DHT22;11653;50.848;4.584;2023-06-19T11:47:00;37.10;50.90
22974;DHT22;11653;50.848;4.584;2023-06-19T11:49:26;36.70;51.60
22974;DHT22;11653;50.848;4.584;2023-06-19T11:51:51;36.30;53.40
22974;DHT22;11653;50.848;4.584;2023-06-19T11:54:17;35.80;51.30
22974;DHT22;11653;50.848;4.584;2023-06-19T11:56:46;35.80;51.30
22974;DHT22;11653;50.848;4.584;2023-06-19T11:59:15;35.60;51.20
22974;DHT22;11653;50.848;4.584;2023-06-19T12:01:40;35.80;51.00
22974;DHT22;11653;50.848;4.584;2023-06-19T12:04:06;35.80;50.10
22974;DHT22;11653;50.848;4.584;2023-06-19T12:06:32;35.80;51.40
22974;DHT22;11653;50.848;4.584;2023-06-19T12:09:00;36.00;50.50
22974;DHT22;11653;50.848;4.584;2023-06-19T12:11:26;35.90;48.90
22974;DHT22;11653;50.848;4.584;2023-06-19T12:13:52;35.40;49.80
22974;DHT22;11653;50.848;4.584;2023-06-19T12:16:19;35.20;50.50
22974;DHT22;11653;50.848;4.584;2023-06-19T12:18:44;35.30;52.60
22974;DHT22;11653;50.848;4.584;2023-06-19T12:21:10;35.10;51.60
22974;DHT22;11653;50.848;4.584;2023-06-19T12:23:35;35.20;50.50
22974;DHT22;11653;50.848;4.584;2023-06-19T12:26:01;35.30;52.00
22974;DHT22;11653;50.848;4.584;2023-06-19T12:28:27;35.10;52.60
22974;DHT22;11653;50.848;4.584;2023-06-19T12:30:53;34.70;52.40
22974;DHT22;11653;50.848;4.584;2023-06-19T12:33:19;34.50;53.80
22974;DHT22;11653;50.848;4.584;2023-06-19T12:35:46;34.20;53.30
22974;DHT22;11653;50.848;4.584;2023-06-19T12:38:12;33.40;54.30
22974;DHT22;11653;50.848;4.584;2023-06-19T12:40:38;32.60;55.80
22974;DHT22;11653;50.848;4.584;2023-06-19T12:43:04;32.40;56.80
22974;DHT22;11653;50.848;4.584;2023-06-19T12:45:30;32.10;55.90
22974;DHT22;11653;50.848;4.584;2023-06-19T12:47:55;31.60;56.30
22974;DHT22;11653;50.848;4.584;2023-06-19T12:50:21;31.30;58.00
22974;DHT22;11653;50.848;4.584;2023-06-19T12:52:49;31.10;59.10
22974;DHT22;11653;50.848;4.584;2023-06-19T12:55:15;30.80;59.30
22974;DHT22;11653;50.848;4.584;2023-06-19T12:57:41;30.60;60.10
22974;DHT22;11653;50.848;4.584;2023-06-19T13:00:11;30.50;59.00
22974;DHT22;11653;50.848;4.584;2023-06-19T13:02:40;30.40;58.60
22974;DHT22;11653;50.848;4.584;2023-06-19T13:05:12;30.20;61.90
22974;DHT22;11653;50.848;4.584;2023-06-19T13:07:37;30.10;60.90
22974;DHT22;11653;50.848;4.584;2023-06-19T13:10:03;29.90;60.80
22974;DHT22;11653;50.848;4.584;2023-06-19T13:12:31;29.70;62.40
22974;DHT22;11653;50.848;4.584;2023-06-19T13:14:57;29.70;63.40
22974;DHT22;11653;50.848;4.584;2023-06-19T13:17:23;29.70;63.30
22974;DHT22;11653;50.848;4.584;2023-06-19T13:19:49;29.70;60.70
22974;DHT22;11653;50.848;4.584;2023-06-19T13:22:14;29.70;61.10
22974;DHT22;11653;50.848;4.584;2023-06-19T13:24:40;29.80;61.50
22974;DHT22;11653;50.848;4.584;2023-06-19T13:27:06;29.80;64.10
22974;DHT22;11653;50.848;4.584;2023-06-19T13:29:31;29.70;61.10
22974;DHT22;11653;50.848;4.584;2023-06-19T13:31:57;29.70;62.20
22974;DHT22;11653;50.848;4.584;2023-06-19T13:34:23;29.80;62.10
22974;DHT22;11653;50.848;4.584;2023-06-19T13:36:48;29.80;62.00
22974;DHT22;11653;50.848;4.584;2023-06-19T13:39:14;30.00;62.50
22974;DHT22;11653;50.848;4.584;2023-06-19T13:41:40;30.10;60.20
22974;DHT22;11653;50.848;4.584;2023-06-19T13:44:06;30.10;59.90
22974;DHT22;11653;50.848;4.584;2023-06-19T13:46:31;30.30;60.20
22974;DHT22;11653;50.848;4.584;2023-06-19T13:48:58;30.30;59.50
22974;DHT22;11653;50.848;4.584;2023-06-19T13:51:24;30.30;60.50
22974;DHT22;11653;50.848;4.584;2023-06-19T13:53:51;30.60;62.80
22974;DHT22;11653;50.848;4.584;2023-06-19T13:56:16;30.60;59.20
22974;DHT22;11653;50.848;4.584;2023-06-19T13:58:42;30.70;58.60
22974;DHT22;11653;50.848;4.584;2023-06-19T14:01:08;30.90;61.30
22974;DHT22;11653;50.848;4.584;2023-06-19T14:03:36;31.10;59.00
22974;DHT22;11653;50.848;4.584;2023-06-19T14:06:02;31.10;59.10
22974;DHT22;11653;50.848;4.584;2023-06-19T14:08:28;31.20;58.70
22974;DHT22;11653;50.848;4.584;2023-06-19T14:10:55;31.00;59.80
22974;DHT22;11653;50.848;4.584;2023-06-19T14:13:20;30.90;59.70
22974;DHT22;11653;50.848;4.584;2023-06-19T14:15:46;31.00;60.20
22974;DHT22;11653;50.848;4.584;2023-06-19T14:18:12;30.50;60.10
22974;DHT22;11653;50.848;4.584;2023-06-19T14:20:37;30.10;60.60
22974;DHT22;11653;50.848;4.584;2023-06-19T14:23:03;30.00;61.80
22974;DHT22;11653;50.848;4.584;2023-06-19T14:25:29;30.30;63.60
22974;DHT22;11653;50.848;4.584;2023-06-19T14:27:55;30.60;62.60
22974;DHT22;11653;50.848;4.584;2023-06-19T14:30:20;30.70;63.20
22974;DHT22;11653;50.848;4.584;2023-06-19T14:32:47;30.80;64.00
22974;DHT22;11653;50.848;4.584;2023-06-19T14:35:14;30.90;63.30
22974;DHT22;11653;50.848;4.584;2023-06-19T14:37:40;30.70;63.00
22974;DHT22;11653;50.848;4.584;2023-06-19T14:40:07;30.60;64.30
22974;DHT22;11653;50.848;4.584;2023-06-19T14:42:32;30.60;62.60
22974;DHT22;11653;50.848;4.584;2023-06-19T14:44:58;30.60;60.80
22974;DHT22;11653;50.848;4.584;2023-06-19T14:47:23;30.60;61.20
22974;DHT22;11653;50.848;4.584;2023-06-19T14:49:50;30.60;62.20
22974;DHT22;11653;50.848;4.584;2023-06-19T14:52:18;30.50;62.60
22974;DHT22;11653;50.848;4.584;2023-06-19T14:54:44;30.50;63.20
22974;DHT22;11653;50.848;4.584;2023-06-19T14:57:10;30.40;64.30
22974;DHT22;11653;50.848;4.584;2023-06-19T14:59:35;30.30;63.10
22974;DHT22;11653;50.848;4.584;2023-06-19T15:02:01;30.10;64.20
22974;DHT22;11653;50.848;4.584;2023-06-19T15:04:28;30.10;64.30
22974;DHT22;11653;50.848;4.584;2023-06-19T15:06:53;30.30;65.50
22974;DHT22;11653;50.848;4.584;2023-06-19T15:09:19;30.40;64.20
22974;DHT22;11653;50.848;4.584;2023-06-19T15:11:45;30.30;66.40
22974;DHT22;11653;50.848;4.584;2023-06-19T15:14:10;30.40;66.00
22974;DHT22;11653;50.848;4.584;2023-06-19T15:16:36;30.30;65.30
22974;DHT22;11653;50.848;4.584;2023-06-19T15:19:01;30.40;64.00
22974;DHT22;11653;50.848;4.584;2023-06-19T15:21:27;30.30;63.70
22974;DHT22;11653;50.848;4.584;2023-06-19T15:23:54;30.40;65.70
22974;DHT22;11653;50.848;4.584;2023-06-19T15:26:23;30.50;64.50
22974;DHT22;11653;50.848;4.584;2023-06-19T15:28:48;30.50;62.80
22974;DHT22;11653;50.848;4.584;2023-06-19T15:31:14;30.40;62.60
22974;DHT22;11653;50.848;4.584;2023-06-19T15:33:42;30.40;64.30
22974;DHT22;11653;50.848;4.584;2023-06-19T15:36:08;30.40;65.30